sensor_id;sensor_type;location;lat;lon;timestamp;P1;durP1;ratioP1;P2;durP2;ratioP2
62435;SDS011;48480;50.252;18.848;2024-02-21T00:00:04;9.40;;;4.50;;
62435;SDS011;48480;50.252;18.848;2024-02-21T00:02:50;11.10;;;5.00;;
62435;SDS011;48480;50.252;18.848;2024-02-21T00:05:34;12.40;;;5.60;;
62435;SDS011;48480;50.252;18.848;2024-02-21T00:08:18;13.30;;;7.30;;
62435;SDS011;48480;50.252;18.848;2024-02-21T00:11:02;14.10;;;8.10;;
62435;SDS011;48480;50.252;18.848;2024-02-21T00:13:47;14.50;;;8.90;;
62435;SDS011;48480;50.252;18.848;2024-02-21T00:16:31;16.90;;;9.30;;
62435;SDS011;48480;50.252;18.848;2024-02-21T00:19:15;20.30;;;10.20;;
62435;SDS011;48480;50.252;18.848;2024-02-21T00:21:59;23.20;;;9.60;;
62435;SDS011;48480;50.252;18.848;2024-02-21T00:24:43;21.20;;;10.60;;
62435;SDS011;48480;50.252;18.848;2024-02-21T00:27:27;21.30;;;12.20;;
62435;SDS011;48480;50.252;18.848;2024-02-21T00:30:12;23.30;;;13.20;;
62435;SDS011;48480;50.252;18.848;2024-02-21T00:32:56;29.90;;;15.90;;
62435;SDS011;48480;50.252;18.848;2024-02-21T00:35:40;27.90;;;14.10;;
62435;SDS011;48480;50.252;18.848;2024-02-21T00:38:24;26.20;;;14.20;;
62435;SDS011;48480;50.252;18.848;2024-02-21T00:41:08;23.30;;;13.90;;
62435;SDS011;48480;50.252;18.848;2024-02-21T00:43:52;21.70;;;13.90;;
62435;SDS011;48480;50.252;18.848;2024-02-21T00:46:36;20.40;;;10.70;;
62435;SDS011;48480;50.252;18.848;2024-02-21T00:49:22;20.20;;;10.30;;
62435;SDS011;48480;50.252;18.848;2024-02-21T00:52:06;18.20;;;10.20;;
62435;SDS011;48480;50.252;18.848;2024-02-21T00:54:50;19.90;;;8.90;;
62435;SDS011;48480;50.252;18.848;2024-02-21T00:57:35;18.80;;;11.20;;
62435;SDS011;48480;50.252;18.848;2024-02-21T01:00:19;20.60;;;12.40;;
62435;SDS011;48480;50.252;18.848;2024-02-21T01:03:03;22.10;;;11.50;;
62435;SDS011;48480;50.252;18.848;2024-02-21T01:05:47;18.40;;;9.30;;
62435;SDS011;48480;50.252;18.848;2024-02-21T01:08:32;16.80;;;8.70;;
62435;SDS011;48480;50.252;18.848;2024-02-21T01:11:16;18.60;;;8.50;;
62435;SDS011;48480;50.252;18.848;2024-02-21T01:14:00;13.90;;;6.70;;
62435;SDS011;48480;50.252;18.848;2024-02-21T01:16:44;14.40;;;7.40;;
62435;SDS011;48480;50.252;18.848;2024-02-21T01:19:28;14.90;;;6.50;;
62435;SDS011;48480;50.252;18.848;2024-02-21T01:22:12;14.80;;;6.50;;
62435;SDS011;48480;50.252;18.848;2024-02-21T01:24:56;14.50;;;6.40;;
62435;SDS011;48480;50.252;18.848;2024-02-21T01:27:40;14.40;;;6.50;;
62435;SDS011;48480;50.252;18.848;2024-02-21T01:30:24;14.10;;;5.60;;
62435;SDS011;48480;50.252;18.848;2024-02-21T01:33:08;11.50;;;6.00;;
62435;SDS011;48480;50.252;18.848;2024-02-21T01:35:53;11.20;;;6.10;;
62435;SDS011;48480;50.252;18.848;2024-02-21T01:38:37;11.90;;;4.90;;
62435;SDS011;48480;50.252;18.848;2024-02-21T01:41:21;12.50;;;4.90;;
62435;SDS011;48480;50.252;18.848;2024-02-21T01:44:05;10.60;;;4.70;;
62435;SDS011;48480;50.252;18.848;2024-02-21T01:46:49;12.80;;;4.90;;
62435;SDS011;48480;50.252;18.848;2024-02-21T01:49:35;9.80;;;5.30;;
62435;SDS011;48480;50.252;18.848;2024-02-21T01:52:20;13.70;;;6.70;;
62435;SDS011;48480;50.252;18.848;2024-02-21T01:55:04;12.20;;;5.10;;
62435;SDS011;48480;50.252;18.848;2024-02-21T01:57:49;14.20;;;6.20;;
62435;SDS011;48480;50.252;18.848;2024-02-21T02:00:34;10.50;;;4.80;;
62435;SDS011;48480;50.252;18.848;2024-02-21T02:03:19;9.40;;;5.00;;
62435;SDS011;48480;50.252;18.848;2024-02-21T02:06:04;12.50;;;4.90;;
62435;SDS011;48480;50.252;18.848;2024-02-21T02:08:50;13.00;;;5.40;;
62435;SDS011;48480;50.252;18.848;2024-02-21T02:11:35;11.60;;;4.70;;
62435;SDS011;48480;50.252;18.848;2024-02-21T02:14:19;10.70;;;5.40;;
62435;SDS011;48480;50.252;18.848;2024-02-21T02:17:03;11.10;;;6.40;;
62435;SDS011;48480;50.252;18.848;2024-02-21T02:19:47;15.20;;;7.40;;
62435;SDS011;48480;50.252;18.848;2024-02-21T02:22:32;18.00;;;7.60;;
62435;SDS011;48480;50.252;18.848;2024-02-21T02:25:20;11.40;;;6.30;;
62435;SDS011;48480;50.252;18.848;2024-02-21T02:28:08;11.90;;;6.50;;
62435;SDS011;48480;50.252;18.848;2024-02-21T02:30:52;11.10;;;6.00;;
62435;SDS011;48480;50.252;18.848;2024-02-21T02:33:36;10.00;;;5.60;;
62435;SDS011;48480;50.252;18.848;2024-02-21T02:36:20;11.80;;;6.10;;
62435;SDS011;48480;50.252;18.848;2024-02-21T02:39:04;13.80;;;5.70;;
62435;SDS011;48480;50.252;18.848;2024-02-21T02:41:49;13.30;;;5.60;;
62435;SDS011;48480;50.252;18.848;2024-02-21T02:44:33;12.60;;;7.30;;
62435;SDS011;48480;50.252;18.848;2024-02-21T02:47:16;12.80;;;7.10;;
62435;SDS011;48480;50.252;18.848;2024-02-21T02:50:01;18.50;;;9.00;;
62435;SDS011;48480;50.252;18.848;2024-02-21T02:52:45;14.80;;;7.90;;
62435;SDS011;48480;50.252;18.848;2024-02-21T02:55:29;16.70;;;7.70;;
62435;SDS011;48480;50.252;18.848;2024-02-21T02:58:14;15.20;;;7.50;;
62435;SDS011;48480;50.252;18.848;2024-02-21T03:00:57;15.30;;;7.30;;
62435;SDS011;48480;50.252;18.848;2024-02-21T03:03:43;14.40;;;7.30;;
62435;SDS011;48480;50.252;18.848;2024-02-21T03:06:30;13.40;;;6.70;;
62435;SDS011;48480;50.252;18.848;2024-02-21T03:09:14;11.60;;;7.20;;
62435;SDS011;48480;50.252;18.848;2024-02-21T03:11:59;14.40;;;7.20;;
62435;SDS011;48480;50.252;18.848;2024-02-21T03:14:46;14.90;;;7.80;;
62435;SDS011;48480;50.252;18.848;2024-02-21T03:17:30;17.70;;;8.00;;
62435;SDS011;48480;50.252;18.848;2024-02-21T03:20:16;12.80;;;7.00;;
62435;SDS011;48480;50.252;18.848;2024-02-21T03:23:00;16.50;;;6.90;;
62435;SDS011;48480;50.252;18.848;2024-02-21T03:25:44;12.20;;;6.10;;
62435;SDS011;48480;50.252;18.848;2024-02-21T03:28:28;13.30;;;6.50;;
62435;SDS011;48480;50.252;18.848;2024-02-21T03:31:13;19.70;;;7.80;;
62435;SDS011;48480;50.252;18.848;2024-02-21T03:33:57;18.90;;;9.90;;
62435;SDS011;48480;50.252;18.848;2024-02-21T03:36:42;21.10;;;10.70;;
62435;SDS011;48480;50.252;18.848;2024-02-21T03:39:26;19.90;;;10.20;;
62435;SDS011;48480;50.252;18.848;2024-02-21T03:42:10;22.10;;;10.70;;
62435;SDS011;48480;50.252;18.848;2024-02-21T03:44:54;18.60;;;10.70;;
62435;SDS011;48480;50.252;18.848;2024-02-21T03:47:38;20.30;;;10.30;;
62435;SDS011;48480;50.252;18.848;2024-02-21T03:50:22;22.80;;;11.50;;
62435;SDS011;48480;50.252;18.848;2024-02-21T03:53:06;19.60;;;10.60;;
62435;SDS011;48480;50.252;18.848;2024-02-21T03:55:50;21.70;;;11.00;;
62435;SDS011;48480;50.252;18.848;2024-02-21T03:58:34;23.50;;;12.10;;
62435;SDS011;48480;50.252;18.848;2024-02-21T04:01:18;27.00;;;14.50;;
62435;SDS011;48480;50.252;18.848;2024-02-21T04:04:03;25.50;;;14.40;;
62435;SDS011;48480;50.252;18.848;2024-02-21T04:06:47;25.50;;;14.30;;
62435;SDS011;48480;50.252;18.848;2024-02-21T04:09:32;27.70;;;14.10;;
62435;SDS011;48480;50.252;18.848;2024-02-21T04:12:17;24.70;;;12.60;;
62435;SDS011;48480;50.252;18.848;2024-02-21T04:15:01;20.60;;;10.60;;
62435;SDS011;48480;50.252;18.848;2024-02-21T04:17:45;25.40;;;11.80;;
62435;SDS011;48480;50.252;18.848;2024-02-21T04:20:29;29.70;;;13.40;;
62435;SDS011;48480;50.252;18.848;2024-02-21T04:23:14;21.60;;;15.10;;
62435;SDS011;48480;50.252;18.848;2024-02-21T04:25:58;27.60;;;13.60;;
62435;SDS011;48480;50.252;18.848;2024-02-21T04:28:42;22.30;;;13.20;;
62435;SDS011;48480;50.252;18.848;2024-02-21T04:31:29;24.00;;;13.00;;
62435;SDS011;48480;50.252;18.848;2024-02-21T04:34:16;24.30;;;14.00;;
62435;SDS011;48480;50.252;18.848;2024-02-21T04:36:59;22.70;;;12.80;;
62435;SDS011;48480;50.252;18.848;2024-02-21T04:39:44;22.40;;;10.30;;
62435;SDS011;48480;50.252;18.848;2024-02-21T04:42:28;17.60;;;9.90;;
62435;SDS011;48480;50.252;18.848;2024-02-21T04:45:12;23.20;;;11.20;;
62435;SDS011;48480;50.252;18.848;2024-02-21T04:47:56;19.00;;;10.20;;
62435;SDS011;48480;50.252;18.848;2024-02-21T04:50:40;17.50;;;9.10;;
62435;SDS011;48480;50.252;18.848;2024-02-21T04:53:25;14.20;;;8.00;;
62435;SDS011;48480;50.252;18.848;2024-02-21T04:56:09;13.80;;;9.00;;
62435;SDS011;48480;50.252;18.848;2024-02-21T04:58:53;15.90;;;8.90;;
62435;SDS011;48480;50.252;18.848;2024-02-21T05:01:37;15.50;;;8.90;;
62435;SDS011;48480;50.252;18.848;2024-02-21T05:04:21;15.20;;;9.50;;
62435;SDS011;48480;50.252;18.848;2024-02-21T05:07:05;19.00;;;11.90;;
62435;SDS011;48480;50.252;18.848;2024-02-21T05:09:50;21.00;;;12.30;;
62435;SDS011;48480;50.252;18.848;2024-02-21T05:12:34;18.30;;;10.50;;
62435;SDS011;48480;50.252;18.848;2024-02-21T05:15:18;18.50;;;10.00;;
62435;SDS011;48480;50.252;18.848;2024-02-21T05:18:02;16.60;;;9.50;;
62435;SDS011;48480;50.252;18.848;2024-02-21T05:20:47;18.30;;;10.00;;
62435;SDS011;48480;50.252;18.848;2024-02-21T05:23:31;17.10;;;9.00;;
62435;SDS011;48480;50.252;18.848;2024-02-21T05:26:24;16.90;;;9.60;;
62435;SDS011;48480;50.252;18.848;2024-02-21T05:29:09;15.80;;;9.80;;
62435;SDS011;48480;50.252;18.848;2024-02-21T05:34:37;16.90;;;11.30;;
62435;SDS011;48480;50.252;18.848;2024-02-21T05:37:21;19.30;;;10.60;;
62435;SDS011;48480;50.252;18.848;2024-02-21T05:40:05;17.60;;;10.10;;
62435;SDS011;48480;50.252;18.848;2024-02-21T05:42:50;16.90;;;10.20;;
62435;SDS011;48480;50.252;18.848;2024-02-21T05:45:35;19.00;;;11.30;;
62435;SDS011;48480;50.252;18.848;2024-02-21T05:48:21;20.90;;;11.50;;
62435;SDS011;48480;50.252;18.848;2024-02-21T05:51:06;20.10;;;11.20;;
62435;SDS011;48480;50.252;18.848;2024-02-21T05:53:50;20.80;;;12.50;;
62435;SDS011;48480;50.252;18.848;2024-02-21T05:56:34;23.30;;;14.80;;
62435;SDS011;48480;50.252;18.848;2024-02-21T05:59:18;24.60;;;15.50;;
62435;SDS011;48480;50.252;18.848;2024-02-21T06:02:02;25.30;;;17.10;;
62435;SDS011;48480;50.252;18.848;2024-02-21T06:04:47;20.60;;;12.50;;
62435;SDS011;48480;50.252;18.848;2024-02-21T06:07:32;17.60;;;12.10;;
62435;SDS011;48480;50.252;18.848;2024-02-21T06:10:16;16.70;;;10.80;;
62435;SDS011;48480;50.252;18.848;2024-02-21T06:13:00;21.90;;;12.60;;
62435;SDS011;48480;50.252;18.848;2024-02-21T06:15:44;23.50;;;13.40;;
62435;SDS011;48480;50.252;18.848;2024-02-21T06:18:28;24.90;;;15.50;;
62435;SDS011;48480;50.252;18.848;2024-02-21T06:21:12;24.60;;;15.00;;
62435;SDS011;48480;50.252;18.848;2024-02-21T06:23:57;20.10;;;12.80;;
62435;SDS011;48480;50.252;18.848;2024-02-21T06:26:41;25.90;;;15.40;;
62435;SDS011;48480;50.252;18.848;2024-02-21T06:29:24;23.30;;;13.50;;
62435;SDS011;48480;50.252;18.848;2024-02-21T06:32:08;20.90;;;13.30;;
62435;SDS011;48480;50.252;18.848;2024-02-21T06:34:53;16.60;;;11.10;;
62435;SDS011;48480;50.252;18.848;2024-02-21T06:37:36;22.70;;;13.00;;
62435;SDS011;48480;50.252;18.848;2024-02-21T06:40:22;22.20;;;12.10;;
62435;SDS011;48480;50.252;18.848;2024-02-21T06:43:07;20.10;;;11.10;;
62435;SDS011;48480;50.252;18.848;2024-02-21T06:45:51;24.10;;;12.40;;
62435;SDS011;48480;50.252;18.848;2024-02-21T06:48:36;19.50;;;11.10;;
62435;SDS011;48480;50.252;18.848;2024-02-21T06:51:20;19.90;;;10.90;;
62435;SDS011;48480;50.252;18.848;2024-02-21T06:54:05;19.70;;;10.90;;
62435;SDS011;48480;50.252;18.848;2024-02-21T06:56:49;17.30;;;9.00;;
62435;SDS011;48480;50.252;18.848;2024-02-21T06:59:33;18.20;;;9.80;;
62435;SDS011;48480;50.252;18.848;2024-02-21T07:02:17;21.60;;;10.50;;
62435;SDS011;48480;50.252;18.848;2024-02-21T07:05:01;25.30;;;12.20;;
62435;SDS011;48480;50.252;18.848;2024-02-21T07:07:47;26.50;;;13.00;;
62435;SDS011;48480;50.252;18.848;2024-02-21T07:10:31;20.70;;;10.50;;
62435;SDS011;48480;50.252;18.848;2024-02-21T07:13:15;17.10;;;9.80;;
62435;SDS011;48480;50.252;18.848;2024-02-21T07:16:00;23.20;;;9.80;;
62435;SDS011;48480;50.252;18.848;2024-02-21T07:18:44;21.60;;;10.50;;
62435;SDS011;48480;50.252;18.848;2024-02-21T07:21:28;19.10;;;10.60;;
62435;SDS011;48480;50.252;18.848;2024-02-21T07:24:12;19.40;;;9.20;;
62435;SDS011;48480;50.252;18.848;2024-02-21T07:26:57;15.70;;;9.50;;
62435;SDS011;48480;50.252;18.848;2024-02-21T07:32:42;16.20;;;9.20;;
62435;SDS011;48480;50.252;18.848;2024-02-21T07:35:26;18.50;;;9.20;;
62435;SDS011;48480;50.252;18.848;2024-02-21T07:38:10;21.70;;;9.50;;
62435;SDS011;48480;50.252;18.848;2024-02-21T07:40:56;21.30;;;10.50;;
62435;SDS011;48480;50.252;18.848;2024-02-21T07:43:40;22.40;;;10.20;;
62435;SDS011;48480;50.252;18.848;2024-02-21T07:46:24;17.10;;;9.30;;
62435;SDS011;48480;50.252;18.848;2024-02-21T07:49:08;17.80;;;9.60;;
62435;SDS011;48480;50.252;18.848;2024-02-21T07:51:52;19.80;;;9.10;;
62435;SDS011;48480;50.252;18.848;2024-02-21T07:54:36;17.40;;;9.70;;
62435;SDS011;48480;50.252;18.848;2024-02-21T07:57:20;20.90;;;10.60;;
62435;SDS011;48480;50.252;18.848;2024-02-21T08:00:06;15.90;;;8.80;;
62435;SDS011;48480;50.252;18.848;2024-02-21T08:02:53;14.80;;;7.30;;
62435;SDS011;48480;50.252;18.848;2024-02-21T08:05:37;14.10;;;8.20;;
62435;SDS011;48480;50.252;18.848;2024-02-21T08:08:21;15.70;;;8.70;;
62435;SDS011;48480;50.252;18.848;2024-02-21T08:11:05;15.70;;;9.00;;
62435;SDS011;48480;50.252;18.848;2024-02-21T08:13:49;17.10;;;8.30;;
62435;SDS011;48480;50.252;18.848;2024-02-21T08:16:33;16.90;;;9.40;;
62435;SDS011;48480;50.252;18.848;2024-02-21T08:19:17;18.60;;;9.40;;
62435;SDS011;48480;50.252;18.848;2024-02-21T08:22:01;18.20;;;8.50;;
62435;SDS011;48480;50.252;18.848;2024-02-21T08:24:47;19.40;;;9.70;;
62435;SDS011;48480;50.252;18.848;2024-02-21T08:27:31;19.40;;;8.60;;
62435;SDS011;48480;50.252;18.848;2024-02-21T08:30:15;20.70;;;9.60;;
62435;SDS011;48480;50.252;18.848;2024-02-21T08:33:00;16.70;;;10.00;;
62435;SDS011;48480;50.252;18.848;2024-02-21T08:35:44;21.90;;;11.90;;
62435;SDS011;48480;50.252;18.848;2024-02-21T08:38:28;21.60;;;9.10;;
62435;SDS011;48480;50.252;18.848;2024-02-21T08:41:12;16.90;;;9.30;;
62435;SDS011;48480;50.252;18.848;2024-02-21T08:43:57;15.60;;;8.30;;
62435;SDS011;48480;50.252;18.848;2024-02-21T08:46:41;16.30;;;7.90;;
62435;SDS011;48480;50.252;18.848;2024-02-21T08:49:26;18.70;;;9.40;;
62435;SDS011;48480;50.252;18.848;2024-02-21T08:52:12;17.40;;;8.30;;
62435;SDS011;48480;50.252;18.848;2024-02-21T08:54:56;17.30;;;9.60;;
62435;SDS011;48480;50.252;18.848;2024-02-21T08:57:40;19.00;;;9.00;;
62435;SDS011;48480;50.252;18.848;2024-02-21T09:00:25;17.80;;;8.30;;
62435;SDS011;48480;50.252;18.848;2024-02-21T09:03:11;13.90;;;8.40;;
62435;SDS011;48480;50.252;18.848;2024-02-21T09:05:55;14.60;;;7.90;;
62435;SDS011;48480;50.252;18.848;2024-02-21T09:08:39;16.60;;;9.50;;
62435;SDS011;48480;50.252;18.848;2024-02-21T09:11:23;14.60;;;9.10;;
62435;SDS011;48480;50.252;18.848;2024-02-21T09:14:07;15.80;;;8.80;;
62435;SDS011;48480;50.252;18.848;2024-02-21T09:16:51;14.70;;;7.90;;
62435;SDS011;48480;50.252;18.848;2024-02-21T09:19:35;19.20;;;9.70;;
62435;SDS011;48480;50.252;18.848;2024-02-21T09:22:19;19.00;;;8.40;;
62435;SDS011;48480;50.252;18.848;2024-02-21T09:25:04;15.60;;;7.80;;
62435;SDS011;48480;50.252;18.848;2024-02-21T09:27:49;14.30;;;7.80;;
62435;SDS011;48480;50.252;18.848;2024-02-21T09:30:33;15.30;;;7.50;;
62435;SDS011;48480;50.252;18.848;2024-02-21T09:33:17;12.80;;;7.40;;
62435;SDS011;48480;50.252;18.848;2024-02-21T09:36:02;13.80;;;7.90;;
62435;SDS011;48480;50.252;18.848;2024-02-21T09:38:49;13.40;;;7.10;;
62435;SDS011;48480;50.252;18.848;2024-02-21T09:41:33;15.10;;;6.80;;
62435;SDS011;48480;50.252;18.848;2024-02-21T09:44:23;13.90;;;6.70;;
62435;SDS011;48480;50.252;18.848;2024-02-21T09:47:19;13.10;;;6.90;;
62435;SDS011;48480;50.252;18.848;2024-02-21T09:50:08;12.00;;;6.90;;
62435;SDS011;48480;50.252;18.848;2024-02-21T09:52:54;11.70;;;6.60;;
62435;SDS011;48480;50.252;18.848;2024-02-21T09:55:38;10.20;;;6.60;;
62435;SDS011;48480;50.252;18.848;2024-02-21T09:58:25;16.40;;;7.90;;
62435;SDS011;48480;50.252;18.848;2024-02-21T10:01:11;14.70;;;7.90;;
62435;SDS011;48480;50.252;18.848;2024-02-21T10:03:55;14.00;;;7.90;;
62435;SDS011;48480;50.252;18.848;2024-02-21T10:06:39;9.60;;;5.10;;
62435;SDS011;48480;50.252;18.848;2024-02-21T10:09:24;16.40;;;6.50;;
62435;SDS011;48480;50.252;18.848;2024-02-21T10:12:11;14.80;;;6.50;;
62435;SDS011;48480;50.252;18.848;2024-02-21T10:15:00;14.70;;;6.50;;
62435;SDS011;48480;50.252;18.848;2024-02-21T10:17:46;13.90;;;7.00;;
62435;SDS011;48480;50.252;18.848;2024-02-21T10:20:30;15.10;;;7.30;;
62435;SDS011;48480;50.252;18.848;2024-02-21T10:23:14;11.00;;;6.10;;
62435;SDS011;48480;50.252;18.848;2024-02-21T10:26:04;12.50;;;5.70;;
62435;SDS011;48480;50.252;18.848;2024-02-21T10:28:49;10.30;;;5.10;;
62435;SDS011;48480;50.252;18.848;2024-02-21T10:31:35;13.10;;;6.70;;
62435;SDS011;48480;50.252;18.848;2024-02-21T10:34:19;13.80;;;5.60;;
62435;SDS011;48480;50.252;18.848;2024-02-21T10:37:07;12.10;;;5.90;;
62435;SDS011;48480;50.252;18.848;2024-02-21T10:39:53;12.90;;;6.40;;
62435;SDS011;48480;50.252;18.848;2024-02-21T10:42:37;11.30;;;5.60;;
62435;SDS011;48480;50.252;18.848;2024-02-21T10:45:23;13.40;;;6.40;;
62435;SDS011;48480;50.252;18.848;2024-02-21T10:48:12;14.60;;;6.20;;
62435;SDS011;48480;50.252;18.848;2024-02-21T10:51:02;14.60;;;6.60;;
62435;SDS011;48480;50.252;18.848;2024-02-21T10:53:59;11.80;;;5.60;;
62435;SDS011;48480;50.252;18.848;2024-02-21T10:56:57;11.20;;;5.70;;
62435;SDS011;48480;50.252;18.848;2024-02-21T10:59:44;10.70;;;5.70;;
62435;SDS011;48480;50.252;18.848;2024-02-21T11:02:29;16.90;;;6.60;;
62435;SDS011;48480;50.252;18.848;2024-02-21T11:05:15;13.10;;;6.80;;
62435;SDS011;48480;50.252;18.848;2024-02-21T11:08:02;13.20;;;5.80;;
62435;SDS011;48480;50.252;18.848;2024-02-21T11:10:49;8.80;;;4.70;;
62435;SDS011;48480;50.252;18.848;2024-02-21T11:13:36;12.60;;;5.70;;
62435;SDS011;48480;50.252;18.848;2024-02-21T11:16:21;14.30;;;6.10;;
62435;SDS011;48480;50.252;18.848;2024-02-21T11:21:51;11.10;;;5.60;;
62435;SDS011;48480;50.252;18.848;2024-02-21T11:24:37;13.80;;;6.10;;
62435;SDS011;48480;50.252;18.848;2024-02-21T11:27:22;14.90;;;6.60;;
62435;SDS011;48480;50.252;18.848;2024-02-21T11:30:11;12.10;;;6.00;;
62435;SDS011;48480;50.252;18.848;2024-02-21T11:32:59;13.70;;;7.00;;
62435;SDS011;48480;50.252;18.848;2024-02-21T11:35:47;10.10;;;6.40;;
62435;SDS011;48480;50.252;18.848;2024-02-21T11:38:31;9.70;;;4.90;;
62435;SDS011;48480;50.252;18.848;2024-02-21T11:41:15;10.80;;;4.50;;
62435;SDS011;48480;50.252;18.848;2024-02-21T11:43:59;7.30;;;3.60;;
62435;SDS011;48480;50.252;18.848;2024-02-21T11:46:43;11.70;;;5.20;;
62435;SDS011;48480;50.252;18.848;2024-02-21T11:49:31;12.80;;;5.40;;
62435;SDS011;48480;50.252;18.848;2024-02-21T11:52:24;9.80;;;5.70;;
62435;SDS011;48480;50.252;18.848;2024-02-21T11:55:09;9.90;;;5.00;;
62435;SDS011;48480;50.252;18.848;2024-02-21T11:57:53;10.10;;;4.50;;
62435;SDS011;48480;50.252;18.848;2024-02-21T12:00:37;6.10;;;4.30;;
62435;SDS011;48480;50.252;18.848;2024-02-21T12:03:21;13.00;;;5.90;;
62435;SDS011;48480;50.252;18.848;2024-02-21T12:06:05;11.00;;;5.50;;
62435;SDS011;48480;50.252;18.848;2024-02-21T12:08:50;9.20;;;5.20;;
62435;SDS011;48480;50.252;18.848;2024-02-21T12:11:34;11.40;;;5.10;;
62435;SDS011;48480;50.252;18.848;2024-02-21T12:14:18;11.10;;;5.10;;
62435;SDS011;48480;50.252;18.848;2024-02-21T12:17:03;12.90;;;6.10;;
62435;SDS011;48480;50.252;18.848;2024-02-21T12:19:50;12.80;;;6.00;;
62435;SDS011;48480;50.252;18.848;2024-02-21T12:22:38;16.10;;;7.50;;
62435;SDS011;48480;50.252;18.848;2024-02-21T12:25:22;22.50;;;6.70;;
62435;SDS011;48480;50.252;18.848;2024-02-21T12:28:07;14.70;;;6.20;;
62435;SDS011;48480;50.252;18.848;2024-02-21T12:30:51;10.80;;;5.30;;
62435;SDS011;48480;50.252;18.848;2024-02-21T12:33:36;11.80;;;5.20;;
62435;SDS011;48480;50.252;18.848;2024-02-21T12:36:20;10.70;;;6.00;;
62435;SDS011;48480;50.252;18.848;2024-02-21T12:39:04;13.10;;;5.80;;
62435;SDS011;48480;50.252;18.848;2024-02-21T12:41:48;14.10;;;6.00;;
62435;SDS011;48480;50.252;18.848;2024-02-21T12:44:32;10.40;;;6.00;;
62435;SDS011;48480;50.252;18.848;2024-02-21T12:47:17;8.10;;;4.60;;
62435;SDS011;48480;50.252;18.848;2024-02-21T12:50:04;11.90;;;6.40;;
62435;SDS011;48480;50.252;18.848;2024-02-21T12:52:50;8.80;;;5.20;;
62435;SDS011;48480;50.252;18.848;2024-02-21T12:55:35;10.60;;;4.30;;
62435;SDS011;48480;50.252;18.848;2024-02-21T12:58:18;10.00;;;5.70;;
62435;SDS011;48480;50.252;18.848;2024-02-21T13:01:02;12.30;;;5.70;;
62435;SDS011;48480;50.252;18.848;2024-02-21T13:03:47;8.90;;;5.20;;
62435;SDS011;48480;50.252;18.848;2024-02-21T13:06:31;13.90;;;6.90;;
62435;SDS011;48480;50.252;18.848;2024-02-21T13:09:15;11.50;;;5.50;;
62435;SDS011;48480;50.252;18.848;2024-02-21T13:11:59;12.70;;;6.10;;
62435;SDS011;48480;50.252;18.848;2024-02-21T13:14:44;11.50;;;6.30;;
62435;SDS011;48480;50.252;18.848;2024-02-21T13:17:28;14.30;;;6.10;;
62435;SDS011;48480;50.252;18.848;2024-02-21T13:20:16;14.10;;;5.90;;
62435;SDS011;48480;50.252;18.848;2024-02-21T13:23:00;14.40;;;6.70;;
62435;SDS011;48480;50.252;18.848;2024-02-21T13:25:44;16.90;;;7.80;;
62435;SDS011;48480;50.252;18.848;2024-02-21T13:28:29;12.40;;;6.30;;
62435;SDS011;48480;50.252;18.848;2024-02-21T13:31:13;15.20;;;7.00;;
62435;SDS011;48480;50.252;18.848;2024-02-21T13:34:00;17.00;;;7.40;;
62435;SDS011;48480;50.252;18.848;2024-02-21T13:36:44;15.20;;;8.20;;
62435;SDS011;48480;50.252;18.848;2024-02-21T13:39:29;18.00;;;8.10;;
62435;SDS011;48480;50.252;18.848;2024-02-21T13:42:13;13.50;;;6.90;;
62435;SDS011;48480;50.252;18.848;2024-02-21T13:44:57;12.90;;;7.00;;
62435;SDS011;48480;50.252;18.848;2024-02-21T13:47:41;15.90;;;7.60;;
62435;SDS011;48480;50.252;18.848;2024-02-21T13:50:29;11.50;;;6.70;;
62435;SDS011;48480;50.252;18.848;2024-02-21T13:53:14;18.40;;;8.30;;
62435;SDS011;48480;50.252;18.848;2024-02-21T13:55:58;19.00;;;7.80;;
62435;SDS011;48480;50.252;18.848;2024-02-21T13:58:42;12.50;;;5.40;;
62435;SDS011;48480;50.252;18.848;2024-02-21T14:01:27;15.20;;;6.50;;
62435;SDS011;48480;50.252;18.848;2024-02-21T14:04:15;18.80;;;8.30;;
62435;SDS011;48480;50.252;18.848;2024-02-21T14:06:59;16.70;;;8.40;;
62435;SDS011;48480;50.252;18.848;2024-02-21T14:09:44;17.30;;;7.50;;
62435;SDS011;48480;50.252;18.848;2024-02-21T14:12:28;15.60;;;6.20;;
62435;SDS011;48480;50.252;18.848;2024-02-21T14:15:12;12.00;;;7.40;;
62435;SDS011;48480;50.252;18.848;2024-02-21T14:17:56;13.80;;;6.70;;
62435;SDS011;48480;50.252;18.848;2024-02-21T14:20:40;15.00;;;8.20;;
62435;SDS011;48480;50.252;18.848;2024-02-21T14:23:24;13.60;;;6.60;;
62435;SDS011;48480;50.252;18.848;2024-02-21T14:26:08;12.20;;;6.60;;
62435;SDS011;48480;50.252;18.848;2024-02-21T14:28:52;13.80;;;6.80;;
62435;SDS011;48480;50.252;18.848;2024-02-21T14:31:37;12.40;;;7.10;;
62435;SDS011;48480;50.252;18.848;2024-02-21T14:34:24;15.00;;;7.80;;
62435;SDS011;48480;50.252;18.848;2024-02-21T14:37:16;8.90;;;4.80;;
62435;SDS011;48480;50.252;18.848;2024-02-21T14:40:00;16.10;;;7.10;;
62435;SDS011;48480;50.252;18.848;2024-02-21T14:42:44;14.70;;;6.80;;
62435;SDS011;48480;50.252;18.848;2024-02-21T14:45:29;12.90;;;6.50;;
62435;SDS011;48480;50.252;18.848;2024-02-21T14:48:13;14.90;;;8.00;;
62435;SDS011;48480;50.252;18.848;2024-02-21T14:50:58;15.00;;;6.20;;
62435;SDS011;48480;50.252;18.848;2024-02-21T14:53:42;14.80;;;6.60;;
62435;SDS011;48480;50.252;18.848;2024-02-21T14:56:26;12.40;;;6.60;;
62435;SDS011;48480;50.252;18.848;2024-02-21T14:59:10;13.50;;;5.90;;
62435;SDS011;48480;50.252;18.848;2024-02-21T15:01:54;13.30;;;5.60;;
62435;SDS011;48480;50.252;18.848;2024-02-21T15:04:38;13.40;;;5.00;;
62435;SDS011;48480;50.252;18.848;2024-02-21T15:07:22;17.20;;;5.80;;
62435;SDS011;48480;50.252;18.848;2024-02-21T15:10:11;13.70;;;6.10;;
62435;SDS011;48480;50.252;18.848;2024-02-21T15:12:55;14.50;;;7.50;;
62435;SDS011;48480;50.252;18.848;2024-02-21T15:15:40;9.50;;;5.80;;
62435;SDS011;48480;50.252;18.848;2024-02-21T15:18:19;12.70;;;6.00;;
62435;SDS011;48480;50.252;18.848;2024-02-21T15:21:03;12.30;;;6.30;;
62435;SDS011;48480;50.252;18.848;2024-02-21T15:23:48;12.00;;;6.30;;
62435;SDS011;48480;50.252;18.848;2024-02-21T15:26:33;12.80;;;6.30;;
62435;SDS011;48480;50.252;18.848;2024-02-21T15:29:17;14.70;;;8.30;;
62435;SDS011;48480;50.252;18.848;2024-02-21T15:32:01;14.00;;;6.90;;
62435;SDS011;48480;50.252;18.848;2024-02-21T15:34:46;20.50;;;10.30;;
62435;SDS011;48480;50.252;18.848;2024-02-21T15:37:30;19.60;;;11.70;;
62435;SDS011;48480;50.252;18.848;2024-02-21T15:40:14;19.70;;;10.70;;
62435;SDS011;48480;50.252;18.848;2024-02-21T15:42:58;13.80;;;7.80;;
62435;SDS011;48480;50.252;18.848;2024-02-21T15:45:42;15.90;;;8.20;;
62435;SDS011;48480;50.252;18.848;2024-02-21T15:48:26;15.20;;;7.70;;
62435;SDS011;48480;50.252;18.848;2024-02-21T15:51:10;14.40;;;6.20;;
62435;SDS011;48480;50.252;18.848;2024-02-21T15:53:54;17.70;;;8.40;;
62435;SDS011;48480;50.252;18.848;2024-02-21T15:56:39;18.30;;;8.30;;
62435;SDS011;48480;50.252;18.848;2024-02-21T15:59:23;18.10;;;10.00;;
62435;SDS011;48480;50.252;18.848;2024-02-21T16:02:07;17.80;;;8.30;;
62435;SDS011;48480;50.252;18.848;2024-02-21T16:04:51;19.50;;;10.40;;
62435;SDS011;48480;50.252;18.848;2024-02-21T16:07:35;15.30;;;8.70;;